createdAt,value
2018-08-20T00:02:05.794Z,24.50
2018-08-20T00:04:39.560Z,23.03
2018-08-20T00:07:08.182Z,23.80
2018-08-20T00:09:41.985Z,20.60
2018-08-20T00:12:10.761Z,22.33
2018-08-20T00:14:39.243Z,25.10
2018-08-20T00:17:07.806Z,22.67
2018-08-20T00:19:36.481Z,22.67
2018-08-20T00:22:05.001Z,17.17
2018-08-20T00:24:33.584Z,22.60
2018-08-20T00:27:03.284Z,20.03
2018-08-20T00:29:32.181Z,16.77
2018-08-20T00:32:00.715Z,17.00
2018-08-20T00:34:29.304Z,22.27
2018-08-20T00:36:57.820Z,22.07
2018-08-20T00:39:26.473Z,18.83
2018-08-20T00:41:54.970Z,19.97
2018-08-20T00:44:23.565Z,18.67
2018-08-20T00:46:52.127Z,13.87
2018-08-20T00:49:20.703Z,18.40
2018-08-20T00:51:49.347Z,18.90
2018-08-20T00:54:17.862Z,15.10
2018-08-20T00:56:46.500Z,23.97
2018-08-20T00:59:19.660Z,18.57
2018-08-20T01:01:48.256Z,20.60
2018-08-20T01:07:10.798Z,25.57
2018-08-20T01:09:39.297Z,23.80
2018-08-20T01:12:07.761Z,21.07
2018-08-20T01:14:36.193Z,25.23
2018-08-20T01:17:04.863Z,22.10
2018-08-20T01:19:33.468Z,24.30
2018-08-20T01:22:02.318Z,26.67
2018-08-20T01:24:30.745Z,24.53
2018-08-20T01:26:59.358Z,22.70
2018-08-20T01:29:27.856Z,22.27
2018-08-20T01:31:56.357Z,21.23
2018-08-20T01:34:24.817Z,21.67
2018-08-20T01:36:53.268Z,20.27
2018-08-20T01:39:21.787Z,19.53
2018-08-20T01:41:50.269Z,29.97
2018-08-20T01:44:18.746Z,18.60
2018-08-20T01:46:47.231Z,25.37
2018-08-20T01:49:15.701Z,21.47
2018-08-20T01:51:44.280Z,20.53
2018-08-20T01:54:12.726Z,17.83
2018-08-20T01:56:41.348Z,25.53
2018-08-20T01:59:09.809Z,25.63
2018-08-20T02:01:38.318Z,33.50
2018-08-20T02:04:06.932Z,28.03
2018-08-20T02:06:36.601Z,29.73
2018-08-20T02:09:07.150Z,32.83
2018-08-20T02:11:35.731Z,34.10
2018-08-20T02:14:04.403Z,33.90
2018-08-20T02:16:32.884Z,35.30
2018-08-20T02:19:01.377Z,33.53
2018-08-20T02:21:29.872Z,32.07
2018-08-20T02:23:58.480Z,30.87
2018-08-20T02:26:27.025Z,29.10
2018-08-20T02:28:55.471Z,30.97
2018-08-20T02:31:24.023Z,31.60
2018-08-20T02:33:53.475Z,29.13
2018-08-20T02:36:21.981Z,28.27
2018-08-20T02:38:50.675Z,26.63
2018-08-20T02:41:19.270Z,23.70
2018-08-20T02:43:47.884Z,28.03
2018-08-20T02:46:16.764Z,26.23
2018-08-20T02:48:45.252Z,26.50
2018-08-20T02:51:13.799Z,29.40
2018-08-20T02:53:42.472Z,23.60
2018-08-20T02:56:10.946Z,24.33
2018-08-20T02:58:39.573Z,22.57
2018-08-20T03:01:08.112Z,25.07
2018-08-20T03:03:36.614Z,28.33
2018-08-20T03:06:05.218Z,25.97
2018-08-20T03:08:33.779Z,24.67
2018-08-20T03:11:02.399Z,21.80
2018-08-20T03:13:30.945Z,23.37
2018-08-20T03:15:59.467Z,22.87
2018-08-20T03:18:28.014Z,18.97
2018-08-20T03:20:56.519Z,20.57
2018-08-20T03:23:25.093Z,19.33
2018-08-20T03:25:53.538Z,20.73
2018-08-20T03:28:22.136Z,16.47
2018-08-20T03:30:50.598Z,19.47
2018-08-20T03:33:19.146Z,18.87
2018-08-20T03:35:47.688Z,20.93
2018-08-20T03:38:16.173Z,18.33
2018-08-20T03:40:44.761Z,16.00
2018-08-20T03:43:13.344Z,16.50
2018-08-20T03:45:41.818Z,18.37
2018-08-20T03:48:10.406Z,18.80
2018-08-20T03:50:38.890Z,18.30
2018-08-20T03:53:07.476Z,17.90
2018-08-20T03:55:36.009Z,22.30
2018-08-20T03:58:04.542Z,20.50
2018-08-20T04:00:33.212Z,18.70
2018-08-20T04:03:01.698Z,24.00
2018-08-20T04:05:30.140Z,18.83
2018-08-20T04:07:58.677Z,18.00
2018-08-20T04:10:27.143Z,20.07
2018-08-20T04:12:55.649Z,17.53
2018-08-20T04:15:24.325Z,14.77
2018-08-20T04:17:52.841Z,21.50
2018-08-20T04:20:21.406Z,21.43
2018-08-20T04:22:49.908Z,17.03
2018-08-20T04:25:18.456Z,19.40
2018-08-20T04:27:47.083Z,19.90
2018-08-20T04:30:15.666Z,16.77
2018-08-20T04:32:44.117Z,15.00
2018-08-20T04:35:12.697Z,18.17
2018-08-20T04:37:41.210Z,20.20
2018-08-20T04:40:09.756Z,16.47
2018-08-20T04:42:38.191Z,18.70
2018-08-20T04:45:07.737Z,21.93
2018-08-20T04:47:36.167Z,19.47
2018-08-20T04:50:06.503Z,17.93
2018-08-20T04:52:34.844Z,21.30
2018-08-20T04:55:03.309Z,18.60
2018-08-20T04:57:31.980Z,18.23
2018-08-20T05:00:00.423Z,15.77
2018-08-20T05:02:28.877Z,18.97
2018-08-20T05:04:57.292Z,15.77
2018-08-20T05:07:25.764Z,16.60
2018-08-20T05:09:54.880Z,17.10
2018-08-20T05:12:23.402Z,14.73
2018-08-20T05:14:51.924Z,14.47
2018-08-20T05:17:20.565Z,17.67
2018-08-20T05:19:49.243Z,19.33
2018-08-20T05:22:17.743Z,14.97
2018-08-20T05:24:46.244Z,18.90
2018-08-20T05:27:14.956Z,14.77
2018-08-20T05:29:43.491Z,17.30
2018-08-20T05:32:12.066Z,24.93
2018-08-20T05:34:40.570Z,21.20
2018-08-20T05:37:09.024Z,25.43
2018-08-20T05:39:37.625Z,23.13
2018-08-20T05:42:06.211Z,27.33
2018-08-20T05:44:34.793Z,27.13
2018-08-20T05:47:03.285Z,28.27
2018-08-20T05:49:31.736Z,36.53
2018-08-20T05:52:00.353Z,37.50
2018-08-20T05:54:28.912Z,30.00
2018-08-20T05:56:57.411Z,37.63
2018-08-20T05:59:29.222Z,35.90
2018-08-20T06:01:57.754Z,39.33
2018-08-20T06:04:26.253Z,41.70
2018-08-20T06:06:54.793Z,42.97
2018-08-20T06:09:23.290Z,40.83
2018-08-20T06:11:51.910Z,40.60
2018-08-20T06:14:20.452Z,35.60
2018-08-20T06:16:48.932Z,47.77
2018-08-20T06:19:17.423Z,51.83
2018-08-20T06:21:46.041Z,50.60
2018-08-20T06:24:14.597Z,51.50
2018-08-20T06:26:43.209Z,49.80
2018-08-20T06:29:11.794Z,51.37
2018-08-20T06:31:40.352Z,59.23
2018-08-20T06:34:08.848Z,51.60
2018-08-20T06:36:37.369Z,68.50
2018-08-20T06:39:07.764Z,59.37
2018-08-20T06:41:36.408Z,66.53
2018-08-20T06:44:05.328Z,62.27
2018-08-20T06:46:33.960Z,64.87
2018-08-20T06:49:02.470Z,64.00
2018-08-20T06:51:30.988Z,70.73
2018-08-20T06:53:59.614Z,67.23
2018-08-20T06:56:42.451Z,76.80
2018-08-20T06:59:10.948Z,69.90
2018-08-20T07:01:39.644Z,69.27
2018-08-20T07:04:08.683Z,77.57
2018-08-20T07:06:37.224Z,73.57
2018-08-20T07:09:06.270Z,77.33
2018-08-20T07:11:34.771Z,91.13
2018-08-20T07:14:04.503Z,92.93
2018-08-20T07:16:32.989Z,84.77
2018-08-20T07:19:01.523Z,78.50
2018-08-20T07:21:29.984Z,91.23
2018-08-20T07:23:58.564Z,82.63
2018-08-20T07:26:27.157Z,78.97
2018-08-20T07:28:55.704Z,79.43
2018-08-20T07:31:24.340Z,80.43
2018-08-20T07:33:53.089Z,75.97
2018-08-20T07:36:21.641Z,76.50
2018-08-20T07:38:50.284Z,81.30
2018-08-20T07:41:18.840Z,89.33
2018-08-20T07:43:47.390Z,83.73
2018-08-20T07:46:15.999Z,78.13
2018-08-20T07:48:44.602Z,80.47
2018-08-20T07:51:13.094Z,83.53
2018-08-20T07:53:41.647Z,89.93
2018-08-20T07:56:10.155Z,79.47
2018-08-20T07:58:38.754Z,89.47
2018-08-20T08:01:07.429Z,83.00
2018-08-20T08:03:36.018Z,92.67
2018-08-20T08:06:05.399Z,81.77
2018-08-20T08:08:34.293Z,91.57
2018-08-20T08:11:03.066Z,72.87
2018-08-20T08:13:31.733Z,77.43
2018-08-20T08:16:00.251Z,77.10
2018-08-20T08:18:28.799Z,84.47
2018-08-20T08:20:57.416Z,81.70
2018-08-20T08:23:25.977Z,75.07
2018-08-20T08:25:54.604Z,81.90
2018-08-20T08:28:23.144Z,79.77
2018-08-20T08:30:51.879Z,84.37
2018-08-20T08:33:20.303Z,82.70
2018-08-20T08:35:48.785Z,78.27
2018-08-20T08:38:17.319Z,81.27
2018-08-20T08:40:45.870Z,68.63
2018-08-20T08:43:14.538Z,77.47
2018-08-20T08:45:43.036Z,73.20
2018-08-20T08:48:11.857Z,74.33
2018-08-20T08:50:40.456Z,69.43
2018-08-20T08:53:09.127Z,70.20
2018-08-20T08:55:37.775Z,77.97
2018-08-20T08:58:06.575Z,95.17
2018-08-20T09:00:35.368Z,73.13
2018-08-20T09:03:03.904Z,79.10
2018-08-20T09:05:32.454Z,73.10
2018-08-20T09:08:01.016Z,80.60
2018-08-20T09:10:29.652Z,78.93
2018-08-20T09:12:58.326Z,72.73
2018-08-20T09:15:26.968Z,77.20
2018-08-20T09:17:55.638Z,63.23
2018-08-20T09:20:24.244Z,73.40
2018-08-20T09:22:52.757Z,72.93
2018-08-20T09:25:21.301Z,81.50
2018-08-20T09:27:49.890Z,74.37
2018-08-20T09:30:21.202Z,71.23
2018-08-20T09:32:49.978Z,72.00
2018-08-20T09:35:18.566Z,73.67
2018-08-20T09:37:47.102Z,70.33
2018-08-20T09:40:15.785Z,65.63
2018-08-20T09:42:44.796Z,68.60
2018-08-20T09:45:13.361Z,59.97
2018-08-20T09:47:42.653Z,53.30
2018-08-20T09:50:12.825Z,66.23
2018-08-20T09:52:41.391Z,51.47
2018-08-20T09:55:10.455Z,59.90
2018-08-20T09:57:39.359Z,52.83
2018-08-20T10:00:11.347Z,61.23
2018-08-20T10:02:39.952Z,54.37
2018-08-20T10:05:08.615Z,63.37
2018-08-20T10:07:37.146Z,42.50
2018-08-20T10:10:06.308Z,60.00
2018-08-20T10:12:34.875Z,41.13
2018-08-20T10:15:03.418Z,60.77
2018-08-20T10:17:32.027Z,50.20
2018-08-20T10:20:00.600Z,60.07
2018-08-20T10:22:29.189Z,50.77
2018-08-20T10:24:58.029Z,63.27
2018-08-20T10:27:26.547Z,49.00
2018-08-20T10:29:55.092Z,58.17
2018-08-20T10:32:23.658Z,47.27
2018-08-20T10:34:52.234Z,55.43
2018-08-20T10:37:20.764Z,45.73
2018-08-20T10:39:49.355Z,57.43
2018-08-20T10:42:18.053Z,49.10
2018-08-20T10:44:54.933Z,60.07
2018-08-20T10:47:23.426Z,42.67
2018-08-20T10:49:51.904Z,52.60
2018-08-20T10:52:20.541Z,42.83
2018-08-20T10:54:49.095Z,56.67
2018-08-20T10:57:17.669Z,42.17
2018-08-20T10:59:46.231Z,50.03
2018-08-20T11:02:14.761Z,42.83
2018-08-20T11:04:43.350Z,50.40
2018-08-20T11:07:12.018Z,40.63
2018-08-20T11:09:40.633Z,47.80
2018-08-20T11:12:09.109Z,34.90
2018-08-20T11:14:37.645Z,45.60
2018-08-20T11:17:06.409Z,40.20
2018-08-20T11:19:34.941Z,47.70
2018-08-20T11:22:03.657Z,47.87
2018-08-20T11:24:32.133Z,49.90
2018-08-20T11:27:00.742Z,47.33
2018-08-20T11:29:29.368Z,37.80
2018-08-20T11:31:57.952Z,29.97
2018-08-20T11:34:26.496Z,40.13
2018-08-20T11:36:55.123Z,36.33
2018-08-20T11:39:23.605Z,32.27
2018-08-20T11:41:52.333Z,36.47
2018-08-20T11:44:20.805Z,30.33
2018-08-20T11:46:49.336Z,36.97
2018-08-20T11:49:18.103Z,30.70
2018-08-20T11:51:46.584Z,31.97
2018-08-20T11:54:15.311Z,29.63
2018-08-20T11:56:43.873Z,35.40
2018-08-20T11:59:12.361Z,29.03
2018-08-20T12:01:40.974Z,25.10
2018-08-20T12:04:10.134Z,31.17
2018-08-20T12:06:38.674Z,36.90
2018-08-20T12:09:07.405Z,28.70
2018-08-20T12:11:36.014Z,23.10
2018-08-20T12:14:04.562Z,25.07
2018-08-20T12:16:33.061Z,16.63
2018-08-20T12:19:01.641Z,17.47
2018-08-20T12:21:30.207Z,15.17
2018-08-20T12:23:59.000Z,16.50
2018-08-20T12:26:27.525Z,17.37
2018-08-20T12:28:56.090Z,16.87
2018-08-20T12:34:04.505Z,10.87
2018-08-20T12:36:33.138Z,13.67
2018-08-20T12:39:01.595Z,11.00
2018-08-20T12:41:30.171Z,12.60
2018-08-20T12:43:58.737Z,12.87
2018-08-20T12:46:27.170Z,13.00
2018-08-20T12:48:55.715Z,10.07
2018-08-20T12:51:24.287Z,11.10
2018-08-20T12:53:52.970Z,10.67
2018-08-20T12:56:21.456Z,8.80
2018-08-20T12:58:51.097Z,10.17
2018-08-20T13:01:19.751Z,12.37
2018-08-20T13:03:49.144Z,9.87
2018-08-20T13:06:17.696Z,13.17
2018-08-20T13:08:47.305Z,11.30
2018-08-20T13:11:16.156Z,13.57
2018-08-20T13:13:45.248Z,11.93
2018-08-20T13:16:14.371Z,9.63
2018-08-20T13:18:42.699Z,11.10
2018-08-20T13:21:11.199Z,12.83
2018-08-20T13:23:39.661Z,13.53
2018-08-20T13:26:08.253Z,9.97
2018-08-20T13:28:36.864Z,12.57
2018-08-20T13:31:05.429Z,12.10
2018-08-20T13:33:34.000Z,14.20
2018-08-20T13:36:02.494Z,11.47
2018-08-20T13:38:31.057Z,14.10
2018-08-20T13:40:59.622Z,10.97
2018-08-20T13:43:28.163Z,11.77
2018-08-20T13:45:56.651Z,13.67
2018-08-20T13:48:25.124Z,12.90
2018-08-20T13:50:54.933Z,11.07
2018-08-20T13:53:23.739Z,13.43
2018-08-20T13:55:52.289Z,20.30
2018-08-20T13:58:20.868Z,11.97
2018-08-20T14:00:49.448Z,10.10
2018-08-20T14:03:17.956Z,8.27
2018-08-20T14:05:47.014Z,7.07
2018-08-20T14:08:15.620Z,5.90
2018-08-20T14:10:44.283Z,6.63
2018-08-20T14:13:12.896Z,9.07
2018-08-20T14:15:41.570Z,6.93
2018-08-20T14:18:10.294Z,7.53
2018-08-20T14:20:39.265Z,12.60
2018-08-20T14:23:07.843Z,16.87
2018-08-20T14:25:36.325Z,8.53
2018-08-20T14:28:05.527Z,6.43
2018-08-20T14:30:34.238Z,8.27
2018-08-20T14:33:02.700Z,10.73
2018-08-20T14:35:31.157Z,9.80
2018-08-20T14:37:59.668Z,5.47
2018-08-20T14:40:28.264Z,5.17
2018-08-20T14:42:56.741Z,6.57
2018-08-20T14:45:29.443Z,9.53
2018-08-20T14:47:58.005Z,12.10
2018-08-20T14:50:26.465Z,6.87
2018-08-20T14:52:55.059Z,6.00
2018-08-20T14:55:23.607Z,6.20
2018-08-20T14:57:52.534Z,7.23
2018-08-20T15:00:21.111Z,10.80
2018-08-20T15:02:49.619Z,7.23
2018-08-20T15:05:18.250Z,8.37
2018-08-20T15:07:46.761Z,8.03
2018-08-20T15:10:15.244Z,7.37
2018-08-20T15:12:43.713Z,12.67
2018-08-20T15:15:12.265Z,8.57
2018-08-20T15:17:40.790Z,6.70
2018-08-20T15:20:09.752Z,8.23
2018-08-20T15:22:38.766Z,8.90
2018-08-20T15:25:07.358Z,5.90
2018-08-20T15:27:35.974Z,10.27
2018-08-20T15:30:04.968Z,7.47
2018-08-20T15:32:33.514Z,5.93
2018-08-20T15:35:01.962Z,11.33
2018-08-20T15:37:30.500Z,11.37
2018-08-20T15:39:59.059Z,14.00
2018-08-20T15:42:27.519Z,6.33
2018-08-20T15:44:56.006Z,8.13
2018-08-20T15:47:24.445Z,7.63
2018-08-20T15:49:52.884Z,10.90
2018-08-20T15:52:21.392Z,4.10
2018-08-20T15:54:50.145Z,6.20
2018-08-20T15:57:18.640Z,4.97
2018-08-20T15:59:47.119Z,3.67
2018-08-20T16:02:15.777Z,3.83
2018-08-20T16:04:44.380Z,8.87
2018-08-20T16:07:13.008Z,3.73
2018-08-20T16:09:41.496Z,1.60
2018-08-20T16:12:10.030Z,1.47
2018-08-20T16:14:38.614Z,2.93
2018-08-20T16:17:07.102Z,1.40
2018-08-20T16:19:35.562Z,3.93
2018-08-20T16:22:04.189Z,4.57
2018-08-20T16:24:32.763Z,4.50
2018-08-20T16:27:01.314Z,1.77
2018-08-20T16:29:29.863Z,2.60
2018-08-20T16:31:58.406Z,3.17
2018-08-20T16:34:27.067Z,2.60
2018-08-20T16:36:55.679Z,2.23
2018-08-20T16:39:24.557Z,3.03
2018-08-20T16:42:02.560Z,1.30
2018-08-20T16:44:31.045Z,3.87
2018-08-20T16:46:59.558Z,3.43
2018-08-20T16:49:28.159Z,5.53
2018-08-20T16:51:56.699Z,3.17
2018-08-20T16:54:25.231Z,3.10
2018-08-20T16:56:53.728Z,4.23
2018-08-20T16:59:22.374Z,6.30
2018-08-20T17:01:50.951Z,3.17
2018-08-20T17:04:32.620Z,8.77
2018-08-20T17:07:02.850Z,6.60
2018-08-20T17:09:31.413Z,5.23
2018-08-20T17:12:00.054Z,7.27
2018-08-20T17:14:28.599Z,10.77
2018-08-20T17:16:57.116Z,4.73
2018-08-20T17:19:45.718Z,6.57
2018-08-20T17:22:14.421Z,6.13
2018-08-20T17:24:43.001Z,4.70
2018-08-20T17:27:12.101Z,5.50
2018-08-20T17:29:40.621Z,5.63
2018-08-20T17:32:09.915Z,6.20
2018-08-20T17:34:43.394Z,6.70
2018-08-20T17:37:12.181Z,8.50
2018-08-20T17:39:58.366Z,8.27
2018-08-20T17:42:28.575Z,5.83
2018-08-20T17:44:57.409Z,8.73
2018-08-20T17:47:27.019Z,6.77
2018-08-20T17:49:56.704Z,5.37
2018-08-20T17:52:38.270Z,5.23
2018-08-20T17:55:06.771Z,8.13
2018-08-20T17:57:35.240Z,4.77
2018-08-20T18:00:19.088Z,7.20
2018-08-20T18:02:47.521Z,5.33
2018-08-20T18:05:16.370Z,4.80
2018-08-20T18:07:45.489Z,5.13
2018-08-20T18:10:14.065Z,9.90
2018-08-20T18:12:42.612Z,7.07
2018-08-20T18:15:16.473Z,7.20
2018-08-20T18:17:45.515Z,5.37
2018-08-20T18:20:14.402Z,6.50
2018-08-20T18:22:43.102Z,5.10
2018-08-20T18:25:11.758Z,5.77
2018-08-20T18:27:44.338Z,6.40
2018-08-20T18:30:15.900Z,8.83
2018-08-20T18:32:44.615Z,6.37
2018-08-20T18:35:29.822Z,5.87
2018-08-20T18:37:58.379Z,7.23
2018-08-20T18:40:41.525Z,5.00
2018-08-20T18:43:10.102Z,5.13
2018-08-20T18:45:38.696Z,6.40
2018-08-20T18:48:07.256Z,6.40
2018-08-20T18:50:35.828Z,8.17
2018-08-20T18:53:04.446Z,4.30
2018-08-20T18:55:33.037Z,7.53
2018-08-20T18:58:01.617Z,5.07
2018-08-20T19:00:30.248Z,5.23
2018-08-20T19:03:00.544Z,4.23
2018-08-20T19:05:33.599Z,5.33
2018-08-20T19:08:05.859Z,4.10
2018-08-20T19:10:34.469Z,4.93
2018-08-20T19:13:23.960Z,4.87
2018-08-20T19:15:52.634Z,4.93
2018-08-20T23:02:51.641Z,7.77
2018-08-20T23:05:20.240Z,10.87
2018-08-20T23:07:48.795Z,7.03
2018-08-20T23:10:17.511Z,7.47
2018-08-20T23:12:46.153Z,9.20
2018-08-20T23:15:14.901Z,7.00
2018-08-20T23:17:43.478Z,10.70
2018-08-20T23:20:18.977Z,6.67
2018-08-20T23:22:52.843Z,5.27
2018-08-20T23:25:22.171Z,5.93
2018-08-20T23:27:50.789Z,6.77
2018-08-20T23:30:19.948Z,8.67
2018-08-20T23:32:48.661Z,6.57
2018-08-20T23:35:17.261Z,7.90
2018-08-20T23:37:45.760Z,9.53
2018-08-20T23:40:14.360Z,10.13
2018-08-20T23:42:42.943Z,7.03
2018-08-20T23:45:11.542Z,9.80
2018-08-20T23:47:40.081Z,6.47
2018-08-20T23:50:08.665Z,9.50
2018-08-20T23:52:37.229Z,12.00
2018-08-20T23:55:05.832Z,10.53
2018-08-20T23:57:34.912Z,8.07
